SKVP/VUP METAR and TAF weather

Enter ICAO airport designator
Station Type Date Time Source
SKVP METAR 2018/12/13 04:00 UTC NOAA

SKVP 130400Z 06011KT 9999 FEW020 27/22 A2994


Station Type Date Time Source
SKVP Decoded METAR 2018/12/13 04:00 UTC NOAA

Valledupar / Alfonso Lopez, Colombia (SKVP) 10-26N 073-15W
Dec 12, 2018 - 11:00 PM EST / 2018.12.13 0400 UTC
Wind: from the ENE (060 degrees) at 13 MPH (11 KT):0
Visibility: greater than 7 mile(s):0
Sky conditions: mostly clear
Temperature: 80 F (27 C)
Dew Point: 71 F (22 C)
Relative Humidity: 74%
Pressure (altimeter): 29.94 in. Hg (1013 hPa)
ob: SKVP 130400Z 06011KT 9999 FEW020 27/22 A2994
cycle: 4

Station Type Date Time Source
SKVP TAF UTC NOAA

Error!


Example: see airport list